sensor_id;sensor_type;location;lat;lon;timestamp;P1;durP1;ratioP1;P2;durP2;ratioP2
17596;SDS011;8917;50.942;6.946;2022-12-05T00:02:23;21.50;;;14.90;;
17596;SDS011;8917;50.942;6.946;2022-12-05T00:04:50;21.03;;;14.40;;
17596;SDS011;8917;50.942;6.946;2022-12-05T00:07:17;23.40;;;14.87;;
17596;SDS011;8917;50.942;6.946;2022-12-05T00:09:45;23.43;;;15.23;;
17596;SDS011;8917;50.942;6.946;2022-12-05T00:12:12;22.03;;;15.30;;
17596;SDS011;8917;50.942;6.946;2022-12-05T00:14:39;21.00;;;14.97;;
17596;SDS011;8917;50.942;6.946;2022-12-05T00:17:07;22.63;;;14.97;;
17596;SDS011;8917;50.942;6.946;2022-12-05T00:22:04;22.80;;;15.60;;
17596;SDS011;8917;50.942;6.946;2022-12-05T00:24:31;22.63;;;15.43;;
17596;SDS011;8917;50.942;6.946;2022-12-05T00:26:58;22.67;;;15.63;;
17596;SDS011;8917;50.942;6.946;2022-12-05T00:29:26;23.40;;;15.83;;
17596;SDS011;8917;50.942;6.946;2022-12-05T00:31:53;23.80;;;16.37;;
17596;SDS011;8917;50.942;6.946;2022-12-05T00:34:20;20.67;;;14.60;;
17596;SDS011;8917;50.942;6.946;2022-12-05T00:36:48;21.77;;;14.90;;
17596;SDS011;8917;50.942;6.946;2022-12-05T00:39:16;21.93;;;15.10;;
17596;SDS011;8917;50.942;6.946;2022-12-05T00:41:44;22.00;;;15.13;;
17596;SDS011;8917;50.942;6.946;2022-12-05T00:44:11;22.63;;;15.27;;
17596;SDS011;8917;50.942;6.946;2022-12-05T00:46:39;23.20;;;15.37;;
17596;SDS011;8917;50.942;6.946;2022-12-05T00:49:06;21.57;;;15.10;;
17596;SDS011;8917;50.942;6.946;2022-12-05T00:51:34;22.20;;;14.63;;
17596;SDS011;8917;50.942;6.946;2022-12-05T00:54:05;22.43;;;15.73;;
17596;SDS011;8917;50.942;6.946;2022-12-05T00:56:34;23.20;;;15.73;;
17596;SDS011;8917;50.942;6.946;2022-12-05T00:59:02;23.30;;;14.83;;
17596;SDS011;8917;50.942;6.946;2022-12-05T01:01:30;20.60;;;15.33;;
17596;SDS011;8917;50.942;6.946;2022-12-05T01:03:58;22.93;;;15.13;;
17596;SDS011;8917;50.942;6.946;2022-12-05T01:06:26;22.60;;;15.17;;
17596;SDS011;8917;50.942;6.946;2022-12-05T01:08:54;20.90;;;15.77;;
17596;SDS011;8917;50.942;6.946;2022-12-05T01:11:23;22.97;;;14.97;;
17596;SDS011;8917;50.942;6.946;2022-12-05T01:13:52;20.47;;;15.00;;
17596;SDS011;8917;50.942;6.946;2022-12-05T01:16:21;22.73;;;16.30;;
17596;SDS011;8917;50.942;6.946;2022-12-05T01:18:49;21.87;;;14.60;;
17596;SDS011;8917;50.942;6.946;2022-12-05T01:21:17;19.37;;;14.40;;
17596;SDS011;8917;50.942;6.946;2022-12-05T01:23:44;23.73;;;14.80;;
17596;SDS011;8917;50.942;6.946;2022-12-05T01:26:12;21.23;;;14.60;;
17596;SDS011;8917;50.942;6.946;2022-12-05T01:28:40;24.03;;;15.47;;
17596;SDS011;8917;50.942;6.946;2022-12-05T01:31:09;22.70;;;15.57;;
17596;SDS011;8917;50.942;6.946;2022-12-05T01:33:38;19.77;;;14.17;;
17596;SDS011;8917;50.942;6.946;2022-12-05T01:36:08;23.77;;;14.77;;
17596;SDS011;8917;50.942;6.946;2022-12-05T01:38:37;20.73;;;14.03;;
17596;SDS011;8917;50.942;6.946;2022-12-05T01:41:05;20.13;;;14.33;;
17596;SDS011;8917;50.942;6.946;2022-12-05T01:43:50;21.90;;;15.00;;
17596;SDS011;8917;50.942;6.946;2022-12-05T01:46:20;22.33;;;14.47;;
17596;SDS011;8917;50.942;6.946;2022-12-05T01:48:47;21.93;;;15.23;;
17596;SDS011;8917;50.942;6.946;2022-12-05T01:51:15;22.53;;;14.83;;
17596;SDS011;8917;50.942;6.946;2022-12-05T01:53:42;22.03;;;14.37;;
17596;SDS011;8917;50.942;6.946;2022-12-05T01:56:10;20.10;;;14.43;;
17596;SDS011;8917;50.942;6.946;2022-12-05T01:58:37;21.07;;;13.30;;
17596;SDS011;8917;50.942;6.946;2022-12-05T02:01:05;20.90;;;14.43;;
17596;SDS011;8917;50.942;6.946;2022-12-05T02:03:34;23.53;;;15.13;;
17596;SDS011;8917;50.942;6.946;2022-12-05T02:06:02;20.87;;;14.07;;
17596;SDS011;8917;50.942;6.946;2022-12-05T02:08:30;20.13;;;14.07;;
17596;SDS011;8917;50.942;6.946;2022-12-05T02:10:57;20.60;;;14.60;;
17596;SDS011;8917;50.942;6.946;2022-12-05T02:13:31;21.03;;;14.47;;
17596;SDS011;8917;50.942;6.946;2022-12-05T02:16:02;20.17;;;14.17;;
17596;SDS011;8917;50.942;6.946;2022-12-05T02:18:36;21.60;;;14.10;;
17596;SDS011;8917;50.942;6.946;2022-12-05T02:21:08;19.30;;;13.13;;
17596;SDS011;8917;50.942;6.946;2022-12-05T02:23:42;20.63;;;14.63;;
17596;SDS011;8917;50.942;6.946;2022-12-05T02:26:23;21.27;;;13.57;;
17596;SDS011;8917;50.942;6.946;2022-12-05T02:29:00;17.87;;;13.07;;
17596;SDS011;8917;50.942;6.946;2022-12-05T02:31:33;19.50;;;13.30;;
17596;SDS011;8917;50.942;6.946;2022-12-05T02:34:04;19.93;;;13.17;;
17596;SDS011;8917;50.942;6.946;2022-12-05T02:36:34;22.00;;;14.33;;
17596;SDS011;8917;50.942;6.946;2022-12-05T02:39:06;18.07;;;12.57;;
17596;SDS011;8917;50.942;6.946;2022-12-05T02:41:36;19.57;;;13.30;;
17596;SDS011;8917;50.942;6.946;2022-12-05T02:44:08;19.80;;;13.27;;
17596;SDS011;8917;50.942;6.946;2022-12-05T02:46:38;21.07;;;13.80;;
17596;SDS011;8917;50.942;6.946;2022-12-05T02:49:08;20.67;;;13.77;;
17596;SDS011;8917;50.942;6.946;2022-12-05T02:51:37;19.57;;;13.27;;
17596;SDS011;8917;50.942;6.946;2022-12-05T02:54:07;20.07;;;13.03;;
17596;SDS011;8917;50.942;6.946;2022-12-05T02:56:36;20.10;;;13.03;;
17596;SDS011;8917;50.942;6.946;2022-12-05T02:59:03;20.30;;;14.50;;
17596;SDS011;8917;50.942;6.946;2022-12-05T03:01:31;18.73;;;13.13;;
17596;SDS011;8917;50.942;6.946;2022-12-05T03:04:00;18.00;;;13.37;;
17596;SDS011;8917;50.942;6.946;2022-12-05T03:06:28;17.37;;;12.67;;
17596;SDS011;8917;50.942;6.946;2022-12-05T03:08:58;19.70;;;13.33;;
17596;SDS011;8917;50.942;6.946;2022-12-05T03:11:27;23.33;;;13.77;;
17596;SDS011;8917;50.942;6.946;2022-12-05T03:13:57;18.30;;;12.67;;
17596;SDS011;8917;50.942;6.946;2022-12-05T03:16:25;19.97;;;13.13;;
17596;SDS011;8917;50.942;6.946;2022-12-05T03:18:54;17.23;;;12.30;;
17596;SDS011;8917;50.942;6.946;2022-12-05T03:21:26;17.87;;;12.17;;
17596;SDS011;8917;50.942;6.946;2022-12-05T03:23:58;18.50;;;13.17;;
17596;SDS011;8917;50.942;6.946;2022-12-05T03:26:30;16.87;;;12.20;;
17596;SDS011;8917;50.942;6.946;2022-12-05T03:29:02;17.37;;;12.60;;
17596;SDS011;8917;50.942;6.946;2022-12-05T03:31:37;17.83;;;12.23;;
17596;SDS011;8917;50.942;6.946;2022-12-05T03:34:06;18.87;;;12.83;;
17596;SDS011;8917;50.942;6.946;2022-12-05T03:36:36;18.03;;;12.33;;
17596;SDS011;8917;50.942;6.946;2022-12-05T03:39:05;16.50;;;11.43;;
17596;SDS011;8917;50.942;6.946;2022-12-05T03:41:34;17.40;;;12.47;;
17596;SDS011;8917;50.942;6.946;2022-12-05T03:44:05;18.17;;;11.93;;
17596;SDS011;8917;50.942;6.946;2022-12-05T03:46:35;16.47;;;11.93;;
17596;SDS011;8917;50.942;6.946;2022-12-05T03:49:06;17.10;;;12.10;;
17596;SDS011;8917;50.942;6.946;2022-12-05T03:51:37;17.17;;;11.67;;
17596;SDS011;8917;50.942;6.946;2022-12-05T03:54:07;18.00;;;12.20;;
17596;SDS011;8917;50.942;6.946;2022-12-05T03:56:38;14.07;;;10.50;;
17596;SDS011;8917;50.942;6.946;2022-12-05T03:59:10;16.53;;;11.73;;
17596;SDS011;8917;50.942;6.946;2022-12-05T04:01:40;17.07;;;11.33;;
17596;SDS011;8917;50.942;6.946;2022-12-05T04:04:09;16.77;;;11.23;;
17596;SDS011;8917;50.942;6.946;2022-12-05T04:06:38;14.13;;;10.70;;
17596;SDS011;8917;50.942;6.946;2022-12-05T04:09:08;15.70;;;10.33;;
17596;SDS011;8917;50.942;6.946;2022-12-05T04:11:38;16.60;;;11.53;;
17596;SDS011;8917;50.942;6.946;2022-12-05T04:14:07;15.77;;;10.83;;
17596;SDS011;8917;50.942;6.946;2022-12-05T04:16:37;15.63;;;11.40;;
17596;SDS011;8917;50.942;6.946;2022-12-05T04:19:25;15.37;;;11.40;;
17596;SDS011;8917;50.942;6.946;2022-12-05T04:22:15;15.33;;;11.20;;
17596;SDS011;8917;50.942;6.946;2022-12-05T04:24:41;12.20;;;9.73;;
17596;SDS011;8917;50.942;6.946;2022-12-05T04:27:27;14.93;;;10.47;;
17596;SDS011;8917;50.942;6.946;2022-12-05T04:29:56;14.73;;;10.63;;
17596;SDS011;8917;50.942;6.946;2022-12-05T04:32:25;16.20;;;10.87;;
17596;SDS011;8917;50.942;6.946;2022-12-05T04:34:54;15.23;;;10.60;;
17596;SDS011;8917;50.942;6.946;2022-12-05T04:37:24;16.13;;;11.27;;
17596;SDS011;8917;50.942;6.946;2022-12-05T04:39:53;13.60;;;10.20;;
17596;SDS011;8917;50.942;6.946;2022-12-05T04:42:22;13.00;;;10.40;;
17596;SDS011;8917;50.942;6.946;2022-12-05T04:44:52;14.60;;;10.20;;
17596;SDS011;8917;50.942;6.946;2022-12-05T04:47:20;15.33;;;11.17;;
17596;SDS011;8917;50.942;6.946;2022-12-05T04:49:48;14.87;;;10.10;;
17596;SDS011;8917;50.942;6.946;2022-12-05T04:52:16;14.93;;;10.83;;
17596;SDS011;8917;50.942;6.946;2022-12-05T04:54:46;16.33;;;12.00;;
17596;SDS011;8917;50.942;6.946;2022-12-05T04:57:15;14.73;;;10.70;;
17596;SDS011;8917;50.942;6.946;2022-12-05T04:59:43;13.80;;;10.77;;
17596;SDS011;8917;50.942;6.946;2022-12-05T05:02:12;14.30;;;10.90;;
17596;SDS011;8917;50.942;6.946;2022-12-05T05:04:40;13.83;;;10.50;;
17596;SDS011;8917;50.942;6.946;2022-12-05T05:07:11;12.27;;;10.27;;
17596;SDS011;8917;50.942;6.946;2022-12-05T05:09:39;15.07;;;11.10;;
17596;SDS011;8917;50.942;6.946;2022-12-05T05:12:07;13.23;;;9.83;;
17596;SDS011;8917;50.942;6.946;2022-12-05T05:14:35;13.67;;;9.87;;
17596;SDS011;8917;50.942;6.946;2022-12-05T05:17:02;11.60;;;9.00;;
17596;SDS011;8917;50.942;6.946;2022-12-05T05:19:29;11.57;;;9.60;;
17596;SDS011;8917;50.942;6.946;2022-12-05T05:21:57;12.53;;;9.03;;
17596;SDS011;8917;50.942;6.946;2022-12-05T05:24:25;14.43;;;10.13;;
17596;SDS011;8917;50.942;6.946;2022-12-05T05:26:52;11.87;;;9.37;;
17596;SDS011;8917;50.942;6.946;2022-12-05T05:29:21;13.80;;;9.93;;
17596;SDS011;8917;50.942;6.946;2022-12-05T05:31:48;13.07;;;9.70;;
17596;SDS011;8917;50.942;6.946;2022-12-05T05:34:15;14.30;;;10.00;;
17596;SDS011;8917;50.942;6.946;2022-12-05T05:36:43;12.30;;;9.37;;
17596;SDS011;8917;50.942;6.946;2022-12-05T05:39:10;12.77;;;9.03;;
17596;SDS011;8917;50.942;6.946;2022-12-05T05:41:39;13.47;;;9.70;;
17596;SDS011;8917;50.942;6.946;2022-12-05T05:44:06;12.20;;;9.60;;
17596;SDS011;8917;50.942;6.946;2022-12-05T05:46:35;12.07;;;9.53;;
17596;SDS011;8917;50.942;6.946;2022-12-05T05:49:03;11.50;;;8.33;;
17596;SDS011;8917;50.942;6.946;2022-12-05T05:51:30;10.43;;;9.00;;
17596;SDS011;8917;50.942;6.946;2022-12-05T05:53:58;13.00;;;9.37;;
17596;SDS011;8917;50.942;6.946;2022-12-05T05:56:25;12.03;;;9.33;;
17596;SDS011;8917;50.942;6.946;2022-12-05T05:58:53;12.60;;;10.00;;
17596;SDS011;8917;50.942;6.946;2022-12-05T06:01:21;13.20;;;9.07;;
17596;SDS011;8917;50.942;6.946;2022-12-05T06:03:50;11.13;;;8.57;;
17596;SDS011;8917;50.942;6.946;2022-12-05T06:06:17;11.93;;;8.60;;
17596;SDS011;8917;50.942;6.946;2022-12-05T06:08:45;12.33;;;9.50;;
17596;SDS011;8917;50.942;6.946;2022-12-05T06:11:13;10.47;;;9.00;;
17596;SDS011;8917;50.942;6.946;2022-12-05T06:13:41;11.27;;;8.80;;
17596;SDS011;8917;50.942;6.946;2022-12-05T06:16:09;25.33;;;11.87;;
17596;SDS011;8917;50.942;6.946;2022-12-05T06:18:37;17.90;;;12.50;;
17596;SDS011;8917;50.942;6.946;2022-12-05T06:21:06;16.37;;;11.13;;
17596;SDS011;8917;50.942;6.946;2022-12-05T06:23:33;14.97;;;10.50;;
17596;SDS011;8917;50.942;6.946;2022-12-05T06:26:01;14.43;;;10.67;;
17596;SDS011;8917;50.942;6.946;2022-12-05T06:28:29;14.63;;;10.40;;
17596;SDS011;8917;50.942;6.946;2022-12-05T06:30:57;16.47;;;10.87;;
17596;SDS011;8917;50.942;6.946;2022-12-05T06:33:24;13.00;;;10.07;;
17596;SDS011;8917;50.942;6.946;2022-12-05T06:36:00;13.43;;;9.70;;
17596;SDS011;8917;50.942;6.946;2022-12-05T06:38:29;13.67;;;10.53;;
17596;SDS011;8917;50.942;6.946;2022-12-05T06:40:56;12.40;;;9.53;;
17596;SDS011;8917;50.942;6.946;2022-12-05T06:43:23;15.57;;;9.97;;
17596;SDS011;8917;50.942;6.946;2022-12-05T06:45:51;15.30;;;11.60;;
17596;SDS011;8917;50.942;6.946;2022-12-05T06:48:18;13.73;;;10.30;;
17596;SDS011;8917;50.942;6.946;2022-12-05T06:50:49;16.03;;;10.17;;
17596;SDS011;8917;50.942;6.946;2022-12-05T06:53:16;12.63;;;9.57;;
17596;SDS011;8917;50.942;6.946;2022-12-05T06:55:53;12.73;;;10.07;;
17596;SDS011;8917;50.942;6.946;2022-12-05T06:58:20;17.27;;;11.17;;
17596;SDS011;8917;50.942;6.946;2022-12-05T07:00:48;12.53;;;9.73;;
17596;SDS011;8917;50.942;6.946;2022-12-05T07:03:32;14.67;;;10.13;;
17596;SDS011;8917;50.942;6.946;2022-12-05T07:06:00;16.27;;;9.87;;
17596;SDS011;8917;50.942;6.946;2022-12-05T07:08:27;14.23;;;10.03;;
17596;SDS011;8917;50.942;6.946;2022-12-05T07:10:56;14.90;;;10.17;;
17596;SDS011;8917;50.942;6.946;2022-12-05T07:13:24;15.03;;;10.67;;
17596;SDS011;8917;50.942;6.946;2022-12-05T07:15:51;14.73;;;10.23;;
17596;SDS011;8917;50.942;6.946;2022-12-05T07:18:18;15.03;;;10.20;;
17596;SDS011;8917;50.942;6.946;2022-12-05T07:20:54;14.57;;;10.20;;
17596;SDS011;8917;50.942;6.946;2022-12-05T07:23:21;14.07;;;10.13;;
17596;SDS011;8917;50.942;6.946;2022-12-05T07:25:48;14.23;;;10.90;;
17596;SDS011;8917;50.942;6.946;2022-12-05T07:28:17;15.13;;;10.80;;
17596;SDS011;8917;50.942;6.946;2022-12-05T07:30:44;14.23;;;10.57;;
17596;SDS011;8917;50.942;6.946;2022-12-05T07:33:12;12.40;;;9.67;;
17596;SDS011;8917;50.942;6.946;2022-12-05T07:35:39;14.23;;;9.77;;
17596;SDS011;8917;50.942;6.946;2022-12-05T07:38:06;13.53;;;10.93;;
17596;SDS011;8917;50.942;6.946;2022-12-05T07:40:36;16.83;;;11.53;;
17596;SDS011;8917;50.942;6.946;2022-12-05T07:43:03;16.30;;;12.20;;
17596;SDS011;8917;50.942;6.946;2022-12-05T07:45:33;16.13;;;11.87;;
17596;SDS011;8917;50.942;6.946;2022-12-05T07:48:01;16.40;;;10.93;;
17596;SDS011;8917;50.942;6.946;2022-12-05T07:50:28;15.27;;;10.97;;
17596;SDS011;8917;50.942;6.946;2022-12-05T07:52:55;20.40;;;14.70;;
17596;SDS011;8917;50.942;6.946;2022-12-05T07:55:23;22.70;;;16.67;;
17596;SDS011;8917;50.942;6.946;2022-12-05T07:57:50;18.17;;;11.93;;
17596;SDS011;8917;50.942;6.946;2022-12-05T08:00:18;18.90;;;12.47;;
17596;SDS011;8917;50.942;6.946;2022-12-05T08:02:47;17.77;;;11.40;;
17596;SDS011;8917;50.942;6.946;2022-12-05T08:05:14;14.30;;;11.20;;
17596;SDS011;8917;50.942;6.946;2022-12-05T08:07:42;17.30;;;11.33;;
17596;SDS011;8917;50.942;6.946;2022-12-05T08:10:09;17.03;;;11.03;;
17596;SDS011;8917;50.942;6.946;2022-12-05T08:12:36;18.17;;;12.33;;
17596;SDS011;8917;50.942;6.946;2022-12-05T08:15:04;18.13;;;13.20;;
17596;SDS011;8917;50.942;6.946;2022-12-05T08:17:32;19.87;;;11.70;;
17596;SDS011;8917;50.942;6.946;2022-12-05T08:20:01;14.43;;;11.20;;
17596;SDS011;8917;50.942;6.946;2022-12-05T08:22:28;14.97;;;10.67;;
17596;SDS011;8917;50.942;6.946;2022-12-05T08:24:56;14.97;;;11.47;;
17596;SDS011;8917;50.942;6.946;2022-12-05T08:27:24;15.03;;;11.20;;
17596;SDS011;8917;50.942;6.946;2022-12-05T08:29:52;18.43;;;13.30;;
17596;SDS011;8917;50.942;6.946;2022-12-05T08:32:19;18.47;;;12.53;;
17596;SDS011;8917;50.942;6.946;2022-12-05T08:34:47;17.33;;;12.80;;
17596;SDS011;8917;50.942;6.946;2022-12-05T08:37:16;16.70;;;11.90;;
17596;SDS011;8917;50.942;6.946;2022-12-05T08:39:43;17.20;;;12.00;;
17596;SDS011;8917;50.942;6.946;2022-12-05T08:42:11;17.57;;;12.40;;
17596;SDS011;8917;50.942;6.946;2022-12-05T08:44:38;17.97;;;12.67;;
17596;SDS011;8917;50.942;6.946;2022-12-05T08:47:06;22.17;;;12.37;;
17596;SDS011;8917;50.942;6.946;2022-12-05T08:49:33;17.13;;;11.83;;
17596;SDS011;8917;50.942;6.946;2022-12-05T08:52:01;16.07;;;11.70;;
17596;SDS011;8917;50.942;6.946;2022-12-05T08:54:29;15.90;;;12.20;;
17596;SDS011;8917;50.942;6.946;2022-12-05T08:56:57;19.77;;;12.13;;
17596;SDS011;8917;50.942;6.946;2022-12-05T08:59:24;13.10;;;10.50;;
17596;SDS011;8917;50.942;6.946;2022-12-05T09:01:55;15.20;;;10.70;;
17596;SDS011;8917;50.942;6.946;2022-12-05T09:04:22;17.30;;;11.73;;
17596;SDS011;8917;50.942;6.946;2022-12-05T09:06:50;16.30;;;11.77;;
17596;SDS011;8917;50.942;6.946;2022-12-05T09:09:17;16.17;;;11.53;;
17596;SDS011;8917;50.942;6.946;2022-12-05T09:11:46;18.80;;;12.00;;
17596;SDS011;8917;50.942;6.946;2022-12-05T09:14:15;15.23;;;11.60;;
17596;SDS011;8917;50.942;6.946;2022-12-05T09:16:43;15.47;;;11.20;;
17596;SDS011;8917;50.942;6.946;2022-12-05T09:19:12;14.83;;;11.20;;
17596;SDS011;8917;50.942;6.946;2022-12-05T09:21:40;18.33;;;12.40;;
17596;SDS011;8917;50.942;6.946;2022-12-05T09:24:08;15.27;;;11.60;;
17596;SDS011;8917;50.942;6.946;2022-12-05T09:26:36;16.60;;;11.93;;
17596;SDS011;8917;50.942;6.946;2022-12-05T09:29:05;15.63;;;11.43;;
17596;SDS011;8917;50.942;6.946;2022-12-05T09:31:32;17.10;;;12.27;;
17596;SDS011;8917;50.942;6.946;2022-12-05T09:34:01;15.63;;;11.63;;
17596;SDS011;8917;50.942;6.946;2022-12-05T09:36:28;14.87;;;11.27;;
17596;SDS011;8917;50.942;6.946;2022-12-05T09:38:58;18.67;;;12.03;;
17596;SDS011;8917;50.942;6.946;2022-12-05T09:41:40;18.70;;;11.37;;
17596;SDS011;8917;50.942;6.946;2022-12-05T09:44:30;14.67;;;10.80;;
17596;SDS011;8917;50.942;6.946;2022-12-05T09:47:03;14.67;;;10.37;;
17596;SDS011;8917;50.942;6.946;2022-12-05T09:49:35;14.57;;;10.03;;
17596;SDS011;8917;50.942;6.946;2022-12-05T09:52:07;15.30;;;10.73;;
17596;SDS011;8917;50.942;6.946;2022-12-05T09:54:37;16.40;;;10.40;;
17596;SDS011;8917;50.942;6.946;2022-12-05T09:57:04;13.23;;;10.30;;
17596;SDS011;8917;50.942;6.946;2022-12-05T09:59:33;14.93;;;10.57;;
17596;SDS011;8917;50.942;6.946;2022-12-05T10:02:02;17.10;;;12.27;;
17596;SDS011;8917;50.942;6.946;2022-12-05T10:04:39;14.50;;;10.50;;
17596;SDS011;8917;50.942;6.946;2022-12-05T10:07:10;14.97;;;11.30;;
17596;SDS011;8917;50.942;6.946;2022-12-05T10:09:46;14.17;;;10.87;;
17596;SDS011;8917;50.942;6.946;2022-12-05T10:12:16;16.23;;;11.23;;
17596;SDS011;8917;50.942;6.946;2022-12-05T10:14:47;17.80;;;12.30;;
17596;SDS011;8917;50.942;6.946;2022-12-05T10:17:21;12.80;;;10.30;;
17596;SDS011;8917;50.942;6.946;2022-12-05T10:19:49;14.90;;;10.77;;
17596;SDS011;8917;50.942;6.946;2022-12-05T10:22:21;12.93;;;9.87;;
17596;SDS011;8917;50.942;6.946;2022-12-05T10:24:51;12.67;;;10.00;;
17596;SDS011;8917;50.942;6.946;2022-12-05T10:27:22;12.40;;;9.37;;
17596;SDS011;8917;50.942;6.946;2022-12-05T10:29:52;13.27;;;10.23;;
17596;SDS011;8917;50.942;6.946;2022-12-05T10:32:25;12.30;;;10.93;;
17596;SDS011;8917;50.942;6.946;2022-12-05T10:34:57;12.30;;;10.10;;
17596;SDS011;8917;50.942;6.946;2022-12-05T10:37:26;11.97;;;10.07;;
17596;SDS011;8917;50.942;6.946;2022-12-05T10:39:54;7.90;;;7.10;;
17596;SDS011;8917;50.942;6.946;2022-12-05T10:42:22;9.90;;;8.87;;
17596;SDS011;8917;50.942;6.946;2022-12-05T10:44:54;11.17;;;8.50;;
17596;SDS011;8917;50.942;6.946;2022-12-05T10:47:21;10.43;;;8.87;;
17596;SDS011;8917;50.942;6.946;2022-12-05T10:49:49;10.40;;;9.30;;
17596;SDS011;8917;50.942;6.946;2022-12-05T10:52:17;13.10;;;9.23;;
17596;SDS011;8917;50.942;6.946;2022-12-05T10:54:45;13.67;;;9.40;;
17596;SDS011;8917;50.942;6.946;2022-12-05T10:57:20;10.47;;;9.37;;
17596;SDS011;8917;50.942;6.946;2022-12-05T10:59:47;11.50;;;10.13;;
17596;SDS011;8917;50.942;6.946;2022-12-05T11:02:20;11.30;;;8.87;;
17596;SDS011;8917;50.942;6.946;2022-12-05T11:04:48;10.40;;;9.30;;
17596;SDS011;8917;50.942;6.946;2022-12-05T11:07:23;12.50;;;9.43;;
17596;SDS011;8917;50.942;6.946;2022-12-05T11:09:50;12.27;;;9.30;;
17596;SDS011;8917;50.942;6.946;2022-12-05T11:12:18;13.23;;;9.23;;
17596;SDS011;8917;50.942;6.946;2022-12-05T11:14:53;18.40;;;12.17;;
17596;SDS011;8917;50.942;6.946;2022-12-05T11:17:23;9.93;;;8.20;;
17596;SDS011;8917;50.942;6.946;2022-12-05T11:19:51;7.73;;;6.97;;
17596;SDS011;8917;50.942;6.946;2022-12-05T11:22:18;10.07;;;8.43;;
17596;SDS011;8917;50.942;6.946;2022-12-05T11:24:47;7.83;;;5.90;;
17596;SDS011;8917;50.942;6.946;2022-12-05T11:27:19;8.70;;;6.70;;
17596;SDS011;8917;50.942;6.946;2022-12-05T11:29:52;9.43;;;7.60;;
17596;SDS011;8917;50.942;6.946;2022-12-05T11:32:21;7.67;;;6.87;;
17596;SDS011;8917;50.942;6.946;2022-12-05T11:34:50;8.33;;;7.50;;
17596;SDS011;8917;50.942;6.946;2022-12-05T11:37:21;8.67;;;6.83;;
17596;SDS011;8917;50.942;6.946;2022-12-05T11:39:50;11.37;;;8.23;;
17596;SDS011;8917;50.942;6.946;2022-12-05T11:42:20;10.10;;;7.77;;
17596;SDS011;8917;50.942;6.946;2022-12-05T11:44:53;11.00;;;8.83;;
17596;SDS011;8917;50.942;6.946;2022-12-05T11:47:23;9.03;;;7.93;;
17596;SDS011;8917;50.942;6.946;2022-12-05T11:50:00;12.17;;;8.50;;
17596;SDS011;8917;50.942;6.946;2022-12-05T11:52:30;11.70;;;9.60;;
17596;SDS011;8917;50.942;6.946;2022-12-05T11:55:02;12.67;;;10.60;;
17596;SDS011;8917;50.942;6.946;2022-12-05T11:57:40;11.80;;;10.60;;
17596;SDS011;8917;50.942;6.946;2022-12-05T12:00:14;15.00;;;10.53;;
17596;SDS011;8917;50.942;6.946;2022-12-05T12:02:53;13.90;;;11.40;;
17596;SDS011;8917;50.942;6.946;2022-12-05T12:05:26;14.30;;;10.63;;
17596;SDS011;8917;50.942;6.946;2022-12-05T12:08:00;14.90;;;12.20;;
17596;SDS011;8917;50.942;6.946;2022-12-05T12:10:31;17.00;;;12.20;;
17596;SDS011;8917;50.942;6.946;2022-12-05T12:13:03;16.50;;;12.20;;
17596;SDS011;8917;50.942;6.946;2022-12-05T12:15:36;17.37;;;11.83;;
17596;SDS011;8917;50.942;6.946;2022-12-05T12:18:10;15.90;;;12.67;;
17596;SDS011;8917;50.942;6.946;2022-12-05T12:20:43;17.73;;;12.40;;
17596;SDS011;8917;50.942;6.946;2022-12-05T12:23:17;16.27;;;11.83;;
17596;SDS011;8917;50.942;6.946;2022-12-05T12:25:52;17.77;;;11.97;;
17596;SDS011;8917;50.942;6.946;2022-12-05T12:28:27;16.80;;;12.13;;
17596;SDS011;8917;50.942;6.946;2022-12-05T12:31:02;11.40;;;10.03;;
17596;SDS011;8917;50.942;6.946;2022-12-05T12:33:32;13.27;;;10.77;;
17596;SDS011;8917;50.942;6.946;2022-12-05T12:36:05;14.73;;;11.20;;
17596;SDS011;8917;50.942;6.946;2022-12-05T12:38:43;11.63;;;10.00;;
17596;SDS011;8917;50.942;6.946;2022-12-05T12:41:16;11.90;;;10.10;;
17596;SDS011;8917;50.942;6.946;2022-12-05T12:43:48;10.40;;;9.30;;
17596;SDS011;8917;50.942;6.946;2022-12-05T12:46:25;10.70;;;9.00;;
17596;SDS011;8917;50.942;6.946;2022-12-05T12:48:59;10.57;;;9.47;;
17596;SDS011;8917;50.942;6.946;2022-12-05T12:51:30;12.50;;;10.80;;
17596;SDS011;8917;50.942;6.946;2022-12-05T12:54:04;12.77;;;10.53;;
17596;SDS011;8917;50.942;6.946;2022-12-05T12:56:35;11.40;;;10.20;;
17596;SDS011;8917;50.942;6.946;2022-12-05T12:59:09;11.07;;;9.47;;
17596;SDS011;8917;50.942;6.946;2022-12-05T13:01:41;13.23;;;10.37;;
17596;SDS011;8917;50.942;6.946;2022-12-05T13:04:09;11.43;;;9.90;;
17596;SDS011;8917;50.942;6.946;2022-12-05T13:06:41;12.27;;;10.33;;
17596;SDS011;8917;50.942;6.946;2022-12-05T13:09:13;11.13;;;9.87;;
17596;SDS011;8917;50.942;6.946;2022-12-05T13:11:41;10.87;;;8.80;;
17596;SDS011;8917;50.942;6.946;2022-12-05T13:14:11;9.80;;;8.80;;
17596;SDS011;8917;50.942;6.946;2022-12-05T13:16:40;11.07;;;9.57;;
17596;SDS011;8917;50.942;6.946;2022-12-05T13:19:13;12.17;;;9.37;;
17596;SDS011;8917;50.942;6.946;2022-12-05T13:21:46;11.50;;;10.10;;
17596;SDS011;8917;50.942;6.946;2022-12-05T13:24:23;14.30;;;9.63;;
17596;SDS011;8917;50.942;6.946;2022-12-05T13:26:51;15.20;;;9.63;;
17596;SDS011;8917;50.942;6.946;2022-12-05T13:29:19;12.03;;;9.33;;
17596;SDS011;8917;50.942;6.946;2022-12-05T13:31:47;12.27;;;9.47;;
17596;SDS011;8917;50.942;6.946;2022-12-05T13:34:33;14.07;;;10.60;;
17596;SDS011;8917;50.942;6.946;2022-12-05T13:37:10;11.67;;;10.03;;
17596;SDS011;8917;50.942;6.946;2022-12-05T13:39:56;11.70;;;10.10;;
17596;SDS011;8917;50.942;6.946;2022-12-05T13:42:41;11.97;;;10.03;;
17596;SDS011;8917;50.942;6.946;2022-12-05T13:45:09;11.57;;;10.37;;
17596;SDS011;8917;50.942;6.946;2022-12-05T13:47:39;16.07;;;13.33;;
17596;SDS011;8917;50.942;6.946;2022-12-05T13:50:13;15.50;;;11.50;;
17596;SDS011;8917;50.942;6.946;2022-12-05T13:52:46;13.67;;;11.10;;
17596;SDS011;8917;50.942;6.946;2022-12-05T13:55:19;14.57;;;11.53;;
17596;SDS011;8917;50.942;6.946;2022-12-05T13:57:49;14.33;;;11.43;;
17596;SDS011;8917;50.942;6.946;2022-12-05T14:00:25;13.47;;;10.80;;
17596;SDS011;8917;50.942;6.946;2022-12-05T14:02:54;13.63;;;10.73;;
17596;SDS011;8917;50.942;6.946;2022-12-05T14:05:34;14.23;;;11.10;;
17596;SDS011;8917;50.942;6.946;2022-12-05T14:13:40;14.53;;;11.10;;
17596;SDS011;8917;50.942;6.946;2022-12-05T14:16:39;14.27;;;10.73;;
17596;SDS011;8917;50.942;6.946;2022-12-05T14:19:25;12.53;;;10.30;;
17596;SDS011;8917;50.942;6.946;2022-12-05T14:21:56;13.13;;;10.83;;
17596;SDS011;8917;50.942;6.946;2022-12-05T14:24:28;13.93;;;10.87;;
17596;SDS011;8917;50.942;6.946;2022-12-05T14:26:58;14.23;;;11.50;;
17596;SDS011;8917;50.942;6.946;2022-12-05T14:29:36;14.60;;;12.17;;
17596;SDS011;8917;50.942;6.946;2022-12-05T14:32:09;13.97;;;11.33;;
17596;SDS011;8917;50.942;6.946;2022-12-05T14:34:46;13.43;;;11.60;;
17596;SDS011;8917;50.942;6.946;2022-12-05T14:37:20;16.27;;;11.80;;
17596;SDS011;8917;50.942;6.946;2022-12-05T14:39:50;17.33;;;12.13;;
17596;SDS011;8917;50.942;6.946;2022-12-05T14:42:22;15.30;;;11.70;;
17596;SDS011;8917;50.942;6.946;2022-12-05T14:44:54;13.20;;;11.27;;
17596;SDS011;8917;50.942;6.946;2022-12-05T14:47:22;13.37;;;11.37;;
17596;SDS011;8917;50.942;6.946;2022-12-05T14:49:52;13.20;;;11.07;;
17596;SDS011;8917;50.942;6.946;2022-12-05T14:52:20;16.93;;;11.57;;
17596;SDS011;8917;50.942;6.946;2022-12-05T14:54:48;15.27;;;10.47;;
17596;SDS011;8917;50.942;6.946;2022-12-05T14:57:17;13.40;;;10.60;;
17596;SDS011;8917;50.942;6.946;2022-12-05T14:59:47;14.43;;;10.97;;
17596;SDS011;8917;50.942;6.946;2022-12-05T15:02:20;15.07;;;10.93;;
17596;SDS011;8917;50.942;6.946;2022-12-05T15:04:50;16.60;;;11.27;;